createdAt,value
2022-11-23T00:01:41.455Z,99750
2022-11-23T00:06:41.454Z,99740
2022-11-23T00:11:41.518Z,99750
2022-11-23T00:16:41.457Z,99750
2022-11-23T00:21:41.517Z,99750
2022-11-23T00:26:41.463Z,99750
2022-11-23T00:31:41.470Z,99750
2022-11-23T00:36:41.477Z,99750
2022-11-23T00:41:41.730Z,99770
2022-11-23T00:46:41.479Z,99770
2022-11-23T00:51:41.525Z,99770
2022-11-23T00:56:41.490Z,99770
2022-11-23T01:01:41.569Z,99770
2022-11-23T01:06:41.487Z,99770
2022-11-23T01:11:41.760Z,99770
2022-11-23T01:16:41.487Z,99770
2022-11-23T01:21:41.556Z,99780
2022-11-23T01:26:41.499Z,99780
2022-11-23T01:31:46.265Z,99790
2022-11-23T01:36:41.507Z,99800
2022-11-23T01:41:41.772Z,99800
2022-11-23T01:46:41.512Z,99810
2022-11-23T01:51:41.566Z,99810
2022-11-23T01:56:41.516Z,99820
2022-11-23T02:01:41.523Z,99820
2022-11-23T02:06:41.531Z,99820
2022-11-23T02:11:41.784Z,99820
2022-11-23T02:16:41.525Z,99830
2022-11-23T02:21:41.596Z,99840
2022-11-23T02:26:41.535Z,99840
2022-11-23T02:31:41.545Z,99840
2022-11-23T02:36:41.537Z,99840
2022-11-23T02:41:41.660Z,99850
2022-11-23T02:46:41.601Z,99850
2022-11-23T02:51:41.603Z,99840
2022-11-23T02:56:41.547Z,99840
2022-11-23T03:01:41.548Z,99850
2022-11-23T03:06:41.555Z,99850
2022-11-23T03:11:41.680Z,99850
2022-11-23T03:16:41.564Z,99860
2022-11-23T03:21:41.617Z,99860
2022-11-23T03:26:41.562Z,99870
2022-11-23T03:31:41.577Z,99870
2022-11-23T03:36:41.572Z,99880
2022-11-23T03:41:41.634Z,99870
2022-11-23T03:46:41.581Z,99880
2022-11-23T03:51:41.634Z,99880
2022-11-23T03:56:41.579Z,99880
2022-11-23T04:01:41.594Z,99880
2022-11-23T04:06:41.591Z,99890
2022-11-23T04:11:41.708Z,99890
2022-11-23T04:16:41.602Z,99880
2022-11-23T04:21:41.659Z,99890
2022-11-23T04:26:41.599Z,99880
2022-11-23T04:31:41.604Z,99890
2022-11-23T04:36:41.603Z,99890
2022-11-23T04:41:41.727Z,99880
2022-11-23T04:46:41.610Z,99890
2022-11-23T04:51:41.670Z,99880
2022-11-23T04:56:41.620Z,99880
2022-11-23T05:01:41.673Z,99880
2022-11-23T05:06:41.620Z,99880
2022-11-23T05:11:41.751Z,99870
2022-11-23T05:16:41.643Z,99870
2022-11-23T05:21:41.687Z,99880
2022-11-23T05:26:41.639Z,99880
2022-11-23T05:31:41.636Z,99870
2022-11-23T05:36:42.505Z,99870
2022-11-23T05:41:41.710Z,99880
2022-11-23T05:46:41.649Z,99870
2022-11-23T05:51:41.717Z,99880
2022-11-23T05:56:41.657Z,99880
2022-11-23T06:01:41.654Z,99870
2022-11-23T06:06:41.657Z,99880
2022-11-23T06:11:41.723Z,99890
2022-11-23T06:16:41.669Z,99890
2022-11-23T06:21:45.034Z,99890
2022-11-23T06:26:41.676Z,99890
2022-11-23T06:31:41.674Z,99890
2022-11-23T06:36:41.674Z,99900
2022-11-23T06:41:41.736Z,99900
2022-11-23T06:46:41.682Z,99900
2022-11-23T06:51:41.739Z,99900
2022-11-23T06:56:41.691Z,99910
2022-11-23T07:01:41.715Z,99910
2022-11-23T07:06:41.694Z,99920
2022-11-23T07:11:41.752Z,99930
2022-11-23T07:16:41.705Z,99930
2022-11-23T07:21:41.796Z,99930
2022-11-23T07:26:41.710Z,99930
2022-11-23T07:31:41.716Z,99940
2022-11-23T07:36:41.713Z,99940
2022-11-23T07:41:41.835Z,99950
2022-11-23T07:46:41.713Z,99960
2022-11-23T07:51:41.775Z,99970
2022-11-23T07:56:41.720Z,99970
2022-11-23T08:01:41.733Z,99970
2022-11-23T08:06:41.731Z,99980
2022-11-23T08:11:41.847Z,99980
2022-11-23T08:16:41.737Z,99990
2022-11-23T08:21:41.794Z,100000
2022-11-23T08:26:41.744Z,99990
2022-11-23T08:31:41.744Z,100000
2022-11-23T08:36:41.749Z,100000
2022-11-23T08:41:41.813Z,100000
2022-11-23T08:46:41.752Z,100000
2022-11-23T08:51:47.011Z,100000
2022-11-23T08:56:41.752Z,100010
2022-11-23T09:01:41.806Z,100000
2022-11-23T09:06:41.765Z,100000
2022-11-23T09:11:41.888Z,100000
2022-11-23T09:16:41.772Z,100000
2022-11-23T09:21:41.824Z,100000
2022-11-23T09:26:41.792Z,100000
2022-11-23T09:31:41.774Z,100000
2022-11-23T09:36:41.788Z,99990
2022-11-23T09:41:41.896Z,100000
2022-11-23T09:46:41.784Z,99990
2022-11-23T09:51:41.844Z,99990
2022-11-23T09:56:41.808Z,99980
2022-11-23T10:01:41.820Z,99990
2022-11-23T10:06:41.792Z,99980
2022-11-23T10:11:41.923Z,99980
2022-11-23T10:16:41.795Z,99970
2022-11-23T10:21:41.859Z,99970
2022-11-23T10:26:41.811Z,99970
2022-11-23T10:31:41.811Z,99960
2022-11-23T10:36:41.821Z,99960
2022-11-23T10:41:41.937Z,99940
2022-11-23T10:46:41.817Z,99930
2022-11-23T10:51:41.876Z,99920
2022-11-23T10:56:41.824Z,99920
2022-11-23T11:01:41.908Z,99910
2022-11-23T11:06:41.835Z,99910
2022-11-23T11:11:41.975Z,99910
2022-11-23T11:16:46.468Z,99900
2022-11-23T11:21:41.887Z,99900
2022-11-23T11:26:41.853Z,99910
2022-11-23T11:31:41.842Z,99910
2022-11-23T11:36:41.847Z,99900
2022-11-23T11:41:41.966Z,99900
2022-11-23T11:46:41.859Z,99900
2022-11-23T11:51:41.911Z,99900
2022-11-23T11:56:41.857Z,99890
2022-11-23T12:01:41.859Z,99880
2022-11-23T12:06:41.865Z,99890
2022-11-23T12:11:41.981Z,99890
2022-11-23T12:16:41.870Z,99880
2022-11-23T12:21:42.022Z,99880
2022-11-23T12:26:41.983Z,99880
2022-11-23T12:31:41.882Z,99880
2022-11-23T12:36:41.883Z,99870
2022-11-23T12:41:42.008Z,99860
2022-11-23T12:46:41.891Z,99850
2022-11-23T12:56:41.947Z,99840
2022-11-23T13:01:42.109Z,99840
2022-11-23T13:09:40.267Z,99830
2022-11-23T13:14:40.376Z,99830
2022-11-23T13:19:40.263Z,99830
2022-11-23T13:24:40.289Z,99830
2022-11-23T13:29:40.325Z,99830
2022-11-23T13:34:40.276Z,99840
2022-11-23T13:39:40.280Z,99820
2022-11-23T13:44:40.395Z,99820
2022-11-23T13:49:40.291Z,99830
2022-11-23T13:54:40.282Z,99830
2022-11-23T13:59:40.362Z,99820
2022-11-23T14:04:40.294Z,99820
2022-11-23T14:09:40.296Z,99820
2022-11-23T14:14:40.415Z,99820
2022-11-23T14:19:40.296Z,99830
2022-11-23T14:24:40.292Z,99850
2022-11-23T14:29:40.373Z,99860
2022-11-23T14:34:40.307Z,99870
2022-11-23T14:39:40.310Z,99880
2022-11-23T14:44:40.739Z,99880
2022-11-23T14:49:40.311Z,99890
2022-11-23T14:54:40.311Z,99900
2022-11-23T14:59:40.382Z,99900
2022-11-23T15:04:40.531Z,99910
2022-11-23T15:09:40.329Z,99920
2022-11-23T15:14:40.392Z,99910
2022-11-23T15:19:40.338Z,99920
2022-11-23T15:24:40.332Z,99920
2022-11-23T15:29:40.552Z,99930
2022-11-23T15:34:40.344Z,99940
2022-11-23T15:39:40.345Z,99950
2022-11-23T15:44:40.468Z,99960
2022-11-23T15:49:40.349Z,99960
2022-11-23T15:54:40.347Z,99970
2022-11-23T15:59:40.420Z,99980
2022-11-23T16:04:40.361Z,99980
2022-11-23T16:09:51.030Z,99980
2022-11-23T16:14:40.428Z,99980
2022-11-23T16:19:40.367Z,99970
2022-11-23T16:24:40.363Z,99970
2022-11-23T16:29:40.431Z,99950
2022-11-23T16:34:40.374Z,99980
2022-11-23T16:39:40.370Z,99970
2022-11-23T16:44:42.094Z,99980
2022-11-23T16:49:40.389Z,99980
2022-11-23T16:54:40.398Z,99990
2022-11-23T16:59:40.455Z,100000
2022-11-23T17:04:40.512Z,100010
2022-11-23T17:09:40.390Z,100010
2022-11-23T17:14:40.463Z,100020
2022-11-23T17:19:40.404Z,100030
2022-11-23T17:24:40.401Z,100030
2022-11-23T17:29:41.932Z,100030
2022-11-23T17:34:40.417Z,100040
2022-11-23T17:39:40.409Z,100050
2022-11-23T17:44:40.488Z,100050
2022-11-23T17:49:40.408Z,100050
2022-11-23T17:54:40.450Z,100060
2022-11-23T17:59:40.507Z,100070
2022-11-23T18:04:40.422Z,100080
2022-11-23T18:09:40.429Z,100080
2022-11-23T18:14:40.550Z,100090
2022-11-23T18:19:40.435Z,100100
2022-11-23T18:24:40.443Z,100090
2022-11-23T18:29:40.509Z,100100
2022-11-23T18:34:40.444Z,100100
2022-11-23T18:39:40.446Z,100100
2022-11-23T18:44:40.571Z,100120
2022-11-23T18:49:40.453Z,100120
2022-11-23T18:54:40.456Z,100130
2022-11-23T18:59:58.089Z,100130
2022-11-23T19:04:40.464Z,100140
2022-11-23T19:09:40.471Z,100150
2022-11-23T19:14:40.529Z,100150
2022-11-23T19:19:40.460Z,100160
2022-11-23T19:24:40.472Z,100150
2022-11-23T19:29:40.545Z,100150
2022-11-23T19:34:40.477Z,100160
2022-11-23T19:39:40.472Z,100180
2022-11-23T19:44:40.549Z,100190
2022-11-23T19:49:40.487Z,100190
2022-11-23T19:54:40.494Z,100200
2022-11-23T19:59:40.702Z,100210
2022-11-23T20:04:40.606Z,100210
2022-11-23T20:09:40.494Z,100230
2022-11-23T20:14:40.617Z,100230
2022-11-23T20:19:40.498Z,100230
2022-11-23T20:24:40.503Z,100220
2022-11-23T20:29:40.718Z,100240
2022-11-23T20:34:40.516Z,100250
2022-11-23T20:39:40.513Z,100240
2022-11-23T20:44:40.774Z,100250
2022-11-23T20:49:40.520Z,100250
2022-11-23T20:54:40.529Z,100260
2022-11-23T20:59:40.712Z,100270
2022-11-23T21:04:40.529Z,100270
2022-11-23T21:09:40.553Z,100280
2022-11-23T21:14:40.595Z,100290
2022-11-23T21:19:40.531Z,100290
2022-11-23T21:24:40.538Z,100300
2022-11-23T21:29:40.754Z,100300
2022-11-23T21:34:40.540Z,100310
2022-11-23T21:39:40.545Z,100310
2022-11-23T21:44:40.677Z,100320
2022-11-23T21:49:40.551Z,100320
2022-11-23T21:54:44.428Z,100330
2022-11-23T21:59:40.770Z,100330
2022-11-23T22:04:40.588Z,100340
2022-11-23T22:09:40.593Z,100340
2022-11-23T22:14:40.858Z,100360
2022-11-23T22:19:40.595Z,100350
2022-11-23T22:24:40.602Z,100350
2022-11-23T22:29:40.793Z,100370
2022-11-23T22:34:40.616Z,100370
2022-11-23T22:39:40.608Z,100380
2022-11-23T22:44:40.672Z,100380
2022-11-23T22:49:40.613Z,100380
2022-11-23T22:54:40.618Z,100390
2022-11-23T22:59:40.698Z,100400
2022-11-23T23:04:40.623Z,100400
2022-11-23T23:09:40.621Z,100400
2022-11-23T23:14:40.891Z,100400
2022-11-23T23:19:40.634Z,100420
2022-11-23T23:24:40.630Z,100410
2022-11-23T23:29:40.844Z,100430
2022-11-23T23:34:40.643Z,100430
2022-11-23T23:39:40.644Z,100440
2022-11-23T23:44:40.763Z,100450
2022-11-23T23:49:40.648Z,100460
2022-11-23T23:54:40.650Z,100460
2022-11-23T23:59:40.713Z,100460
